Time;durP1;ratioP1;P1;durP2;ratioP2;P2;SDS_P1;SDS_P2;PMS_P1;PMS_P2;Temp;Humidity;BMP_temperature;BMP_pressure;BME280_temperature;BME280_humidity;BME280_pressure;Samples;Min_cycle;Max_cycle;Signal;HPM_P1;HPM_P2
2021/12/02 00:01:26;;;;;;;0.00;0.00;;;5.30;99.90;;;5.14;100.00;98710.34;4973172;28;20224;-81
2021/12/02 00:03:55;;;;;;;0.10;0.10;;;5.30;99.90;;;5.14;100.00;98712.09;4958147;28;20221;-80
2021/12/02 00:06:26;;;;;;;0.10;0.10;;;5.30;99.90;;;5.21;100.00;98711.25;5002607;28;20236;-81
2021/12/02 00:08:54;;;;;;;0.10;0.10;;;5.30;99.90;;;5.17;100.00;98701.63;4973598;28;20209;-81
2021/12/02 00:11:22;;;;;;;0.10;0.10;;;5.30;99.90;;;5.08;100.00;98702.47;4978386;28;20209;-81
2021/12/02 00:21:53;;;;;;;0.10;0.10;;;5.30;99.90;;;5.17;100.00;98698.13;4960396;28;20209;-81
2021/12/02 00:24:24;;;;;;;0.10;0.10;;;5.30;99.90;;;5.16;100.00;98692.00;4957517;28;20408;-81
2021/12/02 00:26:53;;;;;;;0.10;0.10;;;5.30;99.90;;;5.14;100.00;98693.75;4972839;28;20244;-81
2021/12/02 00:29:22;;;;;;;0.10;0.10;;;5.30;99.90;;;5.10;100.00;98694.59;4982039;28;20722;-81
2021/12/02 00:31:52;;;;;;;0.10;0.10;;;5.30;99.90;;;5.07;100.00;98698.09;4975350;28;20216;-81
2021/12/02 00:34:22;;;;;;;0.10;0.10;;;5.20;99.90;;;5.06;100.00;98690.22;4983750;28;20532;-81
2021/12/02 00:36:50;;;;;;;0.08;0.08;;;5.20;99.90;;;5.06;100.00;98698.09;4992852;28;20235;-81
2021/12/02 00:39:20;;;;;;;0.10;0.10;;;5.30;99.90;;;5.14;100.00;98709.47;4991250;28;20201;-80
2021/12/02 00:41:48;;;;;;;0.10;0.10;;;5.30;99.90;;;5.14;100.00;98717.31;4962674;28;20213;-81
2021/12/02 00:44:21;;;;;;;0.10;0.10;;;5.30;99.90;;;5.09;100.00;98708.56;4964032;28;20208;-81
2021/12/02 00:46:50;;;;;;;0.05;0.05;;;5.20;99.90;;;5.06;100.00;98709.44;4976839;28;20232;-80
2021/12/02 00:49:19;;;;;;;0.00;0.00;;;5.20;99.90;;;4.98;100.00;98700.69;4954089;28;20212;-81
2021/12/02 00:51:54;;;;;;;0.00;0.00;;;5.20;99.90;;;4.93;100.00;98706.78;4983450;28;20216;-81
2021/12/02 00:54:26;;;;;;;0.00;0.00;;;5.10;99.90;;;4.87;100.00;98710.25;4973727;28;20208;-81
2021/12/02 00:56:56;;;;;;;0.10;0.10;;;5.00;99.90;;;4.79;100.00;98715.44;4973131;28;20220;-81
2021/12/02 00:59:29;;;;;;;0.00;0.00;;;5.00;99.90;;;4.77;100.00;98719.81;4984704;28;20204;-81
2021/12/02 01:01:58;;;;;;;0.10;0.10;;;4.90;99.90;;;4.70;100.00;98720.63;4983002;28;20213;-81
2021/12/02 01:04:27;;;;;;;0.10;0.10;;;4.90;99.90;;;4.76;100.00;98730.28;5002999;28;20208;-81
2021/12/02 01:06:55;;;;;;;0.00;0.00;;;4.90;99.90;;;4.79;100.00;98733.78;5012077;28;20242;-81
2021/12/02 01:09:23;;;;;;;0.10;0.10;;;4.90;99.90;;;4.76;100.00;98730.28;4964379;28;20219;-81
2021/12/02 01:11:54;;;;;;;0.10;0.10;;;4.90;99.90;;;4.68;100.00;98726.75;4961267;28;20671;-81
2021/12/02 01:14:23;;;;;;;0.10;0.10;;;4.80;99.90;;;4.59;100.00;98722.34;4974340;28;20208;-81
2021/12/02 01:16:52;;;;;;;0.10;0.10;;;4.80;99.90;;;4.65;100.00;98732.84;4988020;28;20240;-81
2021/12/02 01:19:20;;;;;;;0.10;0.10;;;4.80;99.90;;;4.62;100.00;98724.09;4965946;28;20208;-81
2021/12/02 01:21:49;;;;;;;0.00;0.00;;;4.80;99.90;;;4.58;100.00;98725.81;4991323;28;20216;-81
2021/12/02 01:24:19;;;;;;;0.10;0.10;;;4.80;99.90;;;4.64;100.00;98741.56;4965888;28;20210;-81
2021/12/02 01:26:54;;;;;;;0.10;0.10;;;4.80;99.90;;;4.69;100.00;98746.81;4982388;28;20243;-81
2021/12/02 01:29:24;;;;;;;0.10;0.10;;;4.80;99.90;;;4.70;100.00;98741.59;4989489;28;20216;-81
2021/12/02 01:31:59;;;;;;;0.00;0.00;;;4.80;99.90;;;4.72;100.00;98744.22;4983986;28;20205;-81
2021/12/02 01:34:29;;;;;;;0.10;0.10;;;4.90;99.90;;;4.77;100.00;98740.75;4974891;28;20224;-80
2021/12/02 01:36:57;;;;;;;0.10;0.10;;;4.90;99.90;;;4.78;100.00;98736.38;4990895;28;20691;-80
2021/12/02 01:39:28;;;;;;;0.10;0.10;;;5.00;99.90;;;4.81;100.00;98737.28;4991499;28;20201;-81
2021/12/02 01:41:59;;;;;;;0.10;0.10;;;4.90;99.90;;;4.80;100.00;98739.88;4975152;28;20232;-81
2021/12/02 01:44:29;;;;;;;0.10;0.10;;;4.90;99.90;;;4.71;100.00;98729.38;4973999;28;20209;-81
2021/12/02 01:47:00;;;;;;;0.10;0.10;;;4.80;99.90;;;4.65;100.00;98727.59;5007296;28;20239;-81
2021/12/02 01:49:36;;;;;;;0.10;0.10;;;4.80;99.90;;;4.64;100.00;98735.44;4973947;28;20227;-81
2021/12/02 01:52:11;;;;;;;0.10;0.10;;;4.80;99.90;;;4.57;100.00;98731.91;4991081;28;20204;-81
2021/12/02 01:54:45;;;;;;;0.08;0.08;;;4.70;99.90;;;4.53;100.00;98727.53;4963039;28;20594;-81
2021/12/02 01:57:29;;;;;;;0.10;0.10;;;4.70;99.90;;;4.59;100.00;98726.69;4969087;28;20232;-81
2021/12/02 02:00:20;;;;;;;0.10;0.10;;;4.70;99.90;;;4.62;100.00;98738.06;4974549;28;20205;-81
2021/12/02 02:02:48;;;;;;;0.10;0.10;;;4.70;99.90;;;4.53;100.00;98729.28;4992715;28;20216;-81
2021/12/02 02:05:18;;;;;;;0.10;0.10;;;4.70;99.90;;;4.49;100.00;98736.22;5006863;28;20209;-81
2021/12/02 02:08:02;;;;;;;0.00;0.00;;;4.70;99.90;;;4.49;100.00;98736.22;4982094;28;20208;-81
2021/12/02 02:10:35;;;;;;;0.10;0.10;;;4.60;99.90;;;4.48;100.00;98737.97;4959794;28;20208;-81
2021/12/02 02:13:08;;;;;;;0.10;0.10;;;4.70;99.90;;;4.48;100.00;98740.59;4984817;28;20231;-81
2021/12/02 02:15:39;;;;;;;0.10;0.10;;;4.70;99.90;;;4.52;100.00;98751.06;4966614;28;20232;-81
2021/12/02 02:23:30;;;;;;;0.10;0.10;;;4.70;99.90;;;4.46;100.00;98736.22;4966083;28;20220;-81
2021/12/02 02:25:59;;;;;;;0.00;0.00;;;4.70;99.90;;;4.58;100.00;98741.53;4975808;28;20465;-81
2021/12/02 02:28:34;;;;;;;0.10;0.10;;;4.80;99.90;;;4.66;100.00;98746.81;4994818;28;20215;-81
2021/12/02 02:31:03;;;;;;;0.10;0.10;;;4.80;99.90;;;4.61;100.00;98744.16;4976873;28;20203;-81
2021/12/02 02:33:37;;;;;;;0.10;0.10;;;4.80;99.90;;;4.64;100.00;98738.94;4975872;28;20426;-81
2021/12/02 02:36:07;;;;;;;0.10;0.10;;;4.80;99.90;;;4.73;100.00;98748.59;4993748;28;20240;-81
2021/12/02 02:38:36;;;;;;;0.10;0.10;;;4.80;99.90;;;4.63;100.00;98736.31;4957760;28;20209;-81
2021/12/02 02:41:07;;;;;;;0.10;0.10;;;4.80;99.90;;;4.59;100.00;98729.31;4979359;28;20223;-81
2021/12/02 02:43:36;;;;;;;0.10;0.10;;;4.80;99.90;;;4.54;100.00;98728.41;4963422;28;20215;-81
2021/12/02 02:46:04;;;;;;;0.00;0.00;;;4.70;99.90;;;4.47;100.00;98724.88;4989846;28;20249;-81
2021/12/02 02:48:33;;;;;;;0.10;0.10;;;4.70;99.90;;;4.48;100.00;98739.72;4987654;28;20216;-81
2021/12/02 02:51:01;;;;;;;0.10;0.10;;;4.70;99.90;;;4.50;100.00;98741.47;4964939;28;20212;-81
2021/12/02 02:53:55;;;;;;;0.10;0.10;;;4.70;99.90;;;4.47;100.00;98732.72;4982406;28;20220;-81
2021/12/02 02:56:59;;;;;;;0.00;0.00;;;4.60;99.90;;;4.42;100.00;98724.84;4998498;28;20602;-81
2021/12/02 03:05:32;;;;;;;0.10;0.10;;;4.70;99.90;;;4.57;100.00;98751.97;4989784;28;20212;-81
2021/12/02 03:08:13;;;;;;;0.10;0.10;;;4.80;99.90;;;4.63;100.00;98755.50;4979402;28;20209;-81
2021/12/02 03:13:48;;;;;;;0.10;0.10;;;4.90;99.90;;;4.82;100.00;98777.44;5000650;28;20208;-81
2021/12/02 03:16:44;;;;;;;0.10;0.10;;;5.00;99.90;;;4.89;100.00;98776.59;4985261;28;20259;-81
2021/12/02 03:19:31;;;;;;;0.00;0.00;;;5.10;99.90;;;4.88;100.00;98766.13;4985382;28;20277;-81
2021/12/02 03:22:18;;;;;;;0.10;0.10;;;5.10;99.90;;;4.89;100.00;98760.88;4980746;28;20215;-81
2021/12/02 03:25:07;;;;;;;0.10;0.10;;;5.10;99.90;;;4.86;100.00;98760.88;5001594;28;20212;-81
2021/12/02 03:27:35;;;;;;;0.10;0.10;;;5.10;99.90;;;4.96;100.00;98777.50;4957378;28;20244;-80
2021/12/02 03:30:08;;;;;;;0.00;0.00;;;5.10;99.90;;;4.90;100.00;98770.50;4978033;28;20217;-81
2021/12/02 03:32:37;;;;;;;0.05;0.05;;;5.10;99.90;;;4.90;100.00;98770.50;4971009;28;20217;-81
2021/12/02 03:35:07;;;;;;;0.03;0.03;;;5.10;99.90;;;4.91;100.00;98767.00;4967319;28;20224;-81
2021/12/02 03:37:36;;;;;;;0.10;0.10;;;5.10;99.90;;;4.88;100.00;98763.50;5037900;28;20231;-81
2021/12/02 03:40:23;;;;;;;0.00;0.00;;;5.00;99.90;;;4.76;100.00;98751.22;5031861;28;20621;-81
2021/12/02 03:42:54;;;;;;;0.10;0.10;;;5.00;99.90;;;4.74;100.00;98755.56;5017062;28;20230;-81
2021/12/02 03:45:38;;;;;;;0.00;0.00;;;4.90;99.90;;;4.73;100.00;98733.75;4980091;28;20590;-81
2021/12/02 03:48:07;;;;;;;0.00;0.00;;;4.90;99.90;;;4.76;100.00;98741.63;4999963;28;20224;-81
2021/12/02 03:50:35;;;;;;;0.00;0.00;;;4.90;99.90;;;4.73;100.00;98743.34;4953467;28;20224;-81
2021/12/02 03:53:23;;;;;;;0.08;0.08;;;4.90;99.90;;;4.73;100.00;98738.09;5004402;28;20219;-81
2021/12/02 03:56:09;;;;;;;0.10;0.10;;;4.90;99.90;;;4.69;100.00;98737.22;5000586;28;20227;-81
2021/12/02 03:58:42;;;;;;;0.10;0.10;;;4.90;99.90;;;4.64;100.00;98730.22;4991817;28;20205;-80
2021/12/02 04:01:12;;;;;;;0.10;0.10;;;4.80;99.90;;;4.61;100.00;98732.81;5001064;28;20212;-81
2021/12/02 04:03:42;;;;;;;0.00;0.00;;;4.80;99.90;;;4.54;100.00;98726.66;5003822;28;20213;-81
2021/12/02 04:06:11;;;;;;;0.00;0.00;;;4.70;99.90;;;4.46;100.00;98720.50;4998759;28;20609;-81
2021/12/02 04:14:29;;;;;;;0.00;0.00;;;4.60;99.90;;;4.37;100.00;98738.78;5008852;28;20208;-81
2021/12/02 04:17:02;;;;;;;0.03;0.03;;;4.60;99.90;;;4.39;100.00;98735.31;4996480;28;20240;-80
2021/12/02 04:19:30;;;;;;;0.00;0.00;;;4.60;99.90;;;4.41;100.00;98730.94;4983335;28;20204;-81
2021/12/02 04:21:59;;;;;;;0.10;0.10;;;4.60;99.90;;;4.47;100.00;98741.47;5003407;28;20219;-81
2021/12/02 04:24:27;;;;;;;0.00;0.00;;;4.60;99.90;;;4.45;100.00;98732.72;4993361;28;20208;-81
2021/12/02 04:26:55;;;;;;;0.10;0.10;;;4.60;99.90;;;4.55;100.00;98748.47;4964108;28;20251;-81
2021/12/02 04:29:44;;;;;;;0.10;0.10;;;4.70;99.90;;;4.49;100.00;98738.84;4965958;28;20204;-81
2021/12/02 04:32:31;;;;;;;0.10;0.10;;;4.70;99.90;;;4.44;100.00;98732.72;4970129;28;20215;-81
2021/12/02 04:35:18;;;;;;;0.30;0.30;;;4.60;99.90;;;4.44;100.00;98738.81;4959003;28;20718;-81
2021/12/02 04:38:05;;;;;;;0.10;0.10;;;4.60;99.90;;;4.47;100.00;98737.97;4989648;28;20388;-81
2021/12/02 04:40:51;;;;;;;0.10;0.10;;;4.60;99.90;;;4.43;100.00;98730.97;4969629;28;20207;-81
2021/12/02 04:43:28;;;;;;;0.10;0.10;;;4.60;99.90;;;4.41;100.00;98738.81;4956667;28;20200;-81
2021/12/02 04:46:14;;;;;;;0.00;0.00;;;4.60;99.90;;;4.35;100.00;98744.00;4984147;28;20288;-81
2021/12/02 04:48:43;;;;;;;0.00;0.00;;;4.50;99.90;;;4.35;100.00;98730.03;4951324;28;20201;-81
2021/12/02 04:51:11;;;;;;;0.05;0.05;;;4.50;99.90;;;4.33;100.00;98737.88;5000807;28;20205;-81
2021/12/02 04:53:39;;;;;;;0.10;0.10;;;4.50;99.90;;;4.31;100.00;98738.72;4980843;28;20201;-81
2021/12/02 04:56:08;;;;;;;0.00;0.00;;;4.50;99.90;;;4.35;100.00;98737.88;4999512;28;20232;-81
2021/12/02 04:58:36;;;;;;;0.10;0.10;;;4.50;99.90;;;4.31;100.00;98744.84;4966742;28;20209;-81
2021/12/02 05:01:04;;;;;;;0.10;0.10;;;4.40;99.90;;;4.31;100.00;98743.97;4984037;28;20212;-81
2021/12/02 05:03:33;;;;;;;0.10;0.10;;;4.50;99.90;;;4.31;100.00;98731.75;4967279;28;20209;-81
2021/12/02 05:06:01;;;;;;;0.00;0.00;;;4.50;99.90;;;4.33;100.00;98737.88;5009933;28;20233;-81
2021/12/02 05:08:29;;;;;;;0.00;0.00;;;4.50;99.90;;;4.35;100.00;98733.53;4974920;28;20200;-81
2021/12/02 05:10:58;;;;;;;0.10;0.10;;;4.50;99.90;;;4.39;100.00;98740.53;4987716;28;20280;-81
2021/12/02 05:13:27;;;;;;;0.10;0.10;;;4.50;99.90;;;4.37;100.00;98741.38;5000459;28;20197;-81
2021/12/02 05:15:55;;;;;;;0.00;0.00;;;4.60;99.90;;;4.50;100.00;98745.84;4968069;28;20223;-81
2021/12/02 05:18:25;;;;;;;0.10;0.10;;;4.70;99.90;;;4.56;100.00;98755.47;4986676;28;20235;-81
2021/12/02 05:20:54;;;;;;;0.00;0.00;;;4.70;99.90;;;4.63;100.00;98758.13;4983880;28;20201;-81
2021/12/02 05:23:22;;;;;;;0.10;0.10;;;4.80;99.90;;;4.67;100.00;98757.28;4993932;28;20205;-81
2021/12/02 05:25:50;;;;;;;0.00;0.00;;;4.80;99.90;;;4.66;100.00;98746.81;4984594;28;20228;-82
2021/12/02 05:28:18;;;;;;;0.00;0.00;;;4.80;99.90;;;4.65;100.00;98739.81;4976452;28;20210;-83
2021/12/02 05:30:48;;;;;;;0.10;0.10;;;4.80;99.90;;;4.65;100.00;98745.91;4962169;28;20213;-82
2021/12/02 05:33:16;;;;;;;0.10;0.10;;;4.80;99.90;;;4.60;100.00;98742.41;4965155;28;20211;-82
2021/12/02 05:35:46;;;;;;;0.10;0.10;;;4.80;99.90;;;4.61;100.00;98745.91;4964573;28;20235;-83
2021/12/02 05:38:15;;;;;;;0.10;0.10;;;4.80;99.90;;;4.61;100.00;98746.78;4959948;28;20247;-83
2021/12/02 05:40:43;;;;;;;0.08;0.08;;;4.80;99.90;;;4.59;100.00;98745.88;4962584;28;20201;-83
2021/12/02 05:43:12;;;;;;;0.10;0.10;;;4.80;99.90;;;4.63;100.00;98752.03;4983435;28;20196;-83
2021/12/02 05:45:49;;;;;;;0.00;0.00;;;4.80;99.90;;;4.62;100.00;98750.28;4991681;28;20220;-82
2021/12/02 05:48:17;;;;;;;0.10;0.10;;;4.80;99.90;;;4.61;100.00;98756.38;4965252;28;20201;-83
2021/12/02 05:50:46;;;;;;;0.10;0.10;;;4.80;99.90;;;4.62;100.00;98760.75;4961089;28;20204;-82
2021/12/02 05:53:14;;;;;;;0.10;0.10;;;4.80;99.90;;;4.57;100.00;98768.56;4964209;28;20216;-83
2021/12/02 05:55:44;;;;;;;0.10;0.10;;;4.80;99.90;;;4.56;100.00;98771.16;4946164;28;20224;-83
2021/12/02 05:58:15;;;;;;;0.10;0.10;;;4.80;99.90;;;4.55;100.00;98772.03;4979485;28;20619;-83
2021/12/02 06:00:44;;;;;;;0.00;0.00;;;4.80;99.90;;;4.56;100.00;98789.50;4978036;28;20242;-83
2021/12/02 06:03:12;;;;;;;0.10;0.10;;;4.80;99.90;;;4.65;100.00;98790.44;4974754;28;20201;-83
2021/12/02 06:05:42;;;;;;;0.10;0.10;;;4.80;99.90;;;4.73;100.00;98795.72;4967343;28;20229;-82
2021/12/02 06:08:10;;;;;;;0.00;0.00;;;4.90;99.90;;;4.73;100.00;98790.47;4962692;28;20216;-83
2021/12/02 06:10:38;;;;;;;0.08;0.08;;;4.90;99.90;;;4.72;100.00;98793.97;4962366;28;20208;-83
2021/12/02 06:13:06;;;;;;;0.10;0.10;;;4.90;99.90;;;4.72;100.00;98794.84;4961001;28;20223;-84
2021/12/02 06:15:36;;;;;;;0.10;0.10;;;4.90;99.90;;;4.72;100.00;98780.88;4991037;28;20205;-83
2021/12/02 06:18:06;;;;;;;0.10;0.10;;;4.90;99.90;;;4.70;100.00;98790.47;4958266;28;20221;-83
2021/12/02 06:20:33;;;;;;;0.10;0.10;;;4.90;99.90;;;4.69;100.00;98789.59;4960321;28;20206;-83
2021/12/02 06:23:02;;;;;;;0.00;0.00;;;4.90;99.90;;;4.67;100.00;98787.81;4961093;28;20215;-83
2021/12/02 06:27:59;;;;;;;0.10;0.10;;;4.90;99.90;;;4.62;100.00;98779.94;4993076;28;20603;-83
2021/12/02 06:30:27;;;;;;;0.10;0.10;;;4.80;99.90;;;4.62;100.00;98789.53;4955065;28;20201;-84
2021/12/02 06:32:57;;;;;;;0.00;0.00;;;4.80;99.90;;;4.63;100.00;98796.53;4973142;28;20211;-82
2021/12/02 06:35:31;;;;;;;0.20;0.20;;;4.80;99.90;;;4.64;100.00;98799.16;4991215;28;20203;-84
2021/12/02 06:38:00;;;;;;;0.10;0.10;;;4.80;99.90;;;4.66;100.00;98804.41;4988385;28;20240;-84
2021/12/02 06:40:35;;;;;;;0.10;0.10;;;4.80;99.90;;;4.70;100.00;98801.81;4973624;28;20211;-82
2021/12/02 06:43:04;;;;;;;0.00;0.00;;;4.90;99.90;;;4.66;100.00;98797.41;4970462;28;20193;-82
2021/12/02 06:45:32;;;;;;;0.10;0.10;;;4.90;99.90;;;4.66;100.00;98802.66;4958775;28;20202;-83
2021/12/02 06:48:16;;;;;;;0.00;0.00;;;4.90;99.90;;;4.64;100.00;98798.28;5004712;28;20224;-83
2021/12/02 06:50:45;;;;;;;0.10;0.10;;;4.90;99.90;;;4.65;100.00;98803.53;4972408;28;20209;-83
2021/12/02 06:53:24;;;;;;;0.10;0.10;;;5.00;99.90;;;4.66;100.00;98802.66;4973272;28;20591;-83
2021/12/02 06:55:52;;;;;;;0.10;0.10;;;4.90;99.90;;;4.63;100.00;98802.63;4965240;28;20235;-83
2021/12/02 06:58:20;;;;;;;0.10;0.10;;;7.40;99.90;;;4.65;100.00;98810.50;4951535;28;20225;-84
2021/12/02 07:00:48;;;;;;;0.10;0.10;;;4.90;99.90;;;4.70;100.00;98811.41;4992182;28;20204;-83
2021/12/02 07:03:17;;;;;;;0.10;0.10;;;4.90;99.90;;;4.72;100.00;98810.53;4960500;28;20197;-83
2021/12/02 07:05:47;;;;;;;0.13;0.13;;;4.90;99.90;;;4.73;100.00;98811.44;4960207;28;20221;-84
2021/12/02 07:08:15;;;;;;;0.20;0.20;;;5.00;99.90;;;4.75;100.00;98818.44;4961775;28;20212;-84
2021/12/02 07:10:44;;;;;;;0.10;0.10;;;4.90;99.90;;;4.56;100.00;98799.97;4988769;28;20207;-84
2021/12/02 07:13:16;;;;;;;0.10;0.10;;;4.80;99.90;;;4.44;100.00;98798.13;4960206;28;20223;-82
2021/12/02 07:15:52;;;;;;;0.10;0.10;;;4.70;99.90;;;4.38;100.00;98795.47;4953789;28;20232;-84
2021/12/02 07:18:23;;;;;;;0.00;0.00;;;4.70;99.90;;;4.38;100.00;98798.09;4956124;28;20228;-84
2021/12/02 07:20:51;;;;;;;0.00;0.00;;;4.60;99.90;;;4.28;100.00;98794.53;4979908;28;20581;-82
2021/12/02 07:23:22;;;;;;;0.00;0.00;;;4.50;99.90;;;4.28;100.00;98812.84;4948090;28;20711;-83
2021/12/02 07:25:51;;;;;;;0.10;0.10;;;4.50;99.90;;;4.30;100.00;98816.34;4963550;28;20225;-83
2021/12/02 07:28:21;;;;;;;0.10;0.10;;;4.50;99.90;;;4.30;100.00;98820.72;4981695;28;20703;-84
2021/12/02 07:30:55;;;;;;;0.10;0.10;;;4.50;99.90;;;4.25;100.00;98818.06;4955922;28;20659;-84
2021/12/02 07:33:28;;;;;;;0.10;0.10;;;4.50;99.90;;;4.25;100.00;98820.69;4969847;28;20211;-84
2021/12/02 07:35:59;;;;;;;0.10;0.10;;;4.50;99.90;;;4.35;100.00;98837.31;4958127;28;20243;-84
2021/12/02 07:38:28;;;;;;;0.00;0.00;;;4.60;99.90;;;4.41;100.00;98847.84;4988960;28;20231;-83
2021/12/02 07:41:05;;;;;;;0.10;0.10;;;4.60;99.90;;;4.46;100.00;98856.59;4943131;28;20200;-83
2021/12/02 07:43:37;;;;;;;0.10;0.10;;;4.70;99.90;;;4.49;100.00;98851.41;4960969;28;20212;-84
2021/12/02 07:46:07;;;;;;;0.10;0.10;;;4.70;99.90;;;4.51;100.00;98849.66;4975329;28;20225;-84
2021/12/02 07:48:36;;;;;;;0.10;0.10;;;4.70;99.90;;;4.53;100.00;98849.69;4952456;28;20598;-83
2021/12/02 07:51:13;;;;;;;0.10;0.10;;;4.80;99.90;;;4.54;100.00;98849.69;4972383;28;20213;-84
2021/12/02 07:53:46;;;;;;;0.10;0.10;;;4.90;99.90;;;4.58;100.00;98855.81;4955433;28;20201;-83
2021/12/02 07:56:17;;;;;;;0.10;0.10;;;4.90;99.90;;;4.56;100.00;98863.66;4992118;28;20227;-84
2021/12/02 07:58:47;;;;;;;0.10;0.10;;;4.90;99.90;;;4.55;100.00;98866.28;4943183;28;20228;-83
2021/12/02 08:01:16;;;;;;;0.10;0.10;;;4.90;99.90;;;4.56;100.00;98879.38;4962739;28;20212;-83
2021/12/02 08:03:45;;;;;;;0.08;0.08;;;4.90;99.90;;;4.57;100.00;98877.63;4969883;28;20205;-84
2021/12/02 08:06:16;;;;;;;0.10;0.10;;;4.90;99.90;;;4.65;100.00;98892.53;4986646;28;20225;-84
2021/12/02 08:08:46;;;;;;;0.10;0.10;;;4.90;99.90;;;4.67;100.00;98892.56;4943929;28;20212;-83
2021/12/02 08:11:15;;;;;;;0.10;0.10;;;4.90;99.90;;;4.66;100.00;98888.19;4974227;28;20216;-83
2021/12/02 08:13:50;;;;;;;0.10;0.10;;;4.90;99.90;;;4.69;100.00;98877.72;4965531;28;20201;-82
2021/12/02 08:16:19;;;;;;;0.10;0.10;;;5.00;99.90;;;4.69;100.00;98888.19;4952479;28;20340;-83
2021/12/02 08:18:47;;;;;;;0.10;0.10;;;5.00;99.90;;;4.72;100.00;98889.09;4989724;28;20229;-83
2021/12/02 08:21:17;;;;;;;0.10;0.10;;;5.00;99.90;;;4.72;100.00;98881.25;4996098;28;20203;-83
2021/12/02 08:23:45;;;;;;;0.10;0.10;;;5.00;99.90;;;4.71;100.00;98878.63;4966862;28;20213;-83
2021/12/02 08:26:16;;;;;;;0.10;0.10;;;5.00;99.90;;;4.72;100.00;98888.22;4978797;28;20232;-83
2021/12/02 08:28:44;;;;;;;0.10;0.10;;;5.00;99.90;;;4.72;100.00;98885.59;4949306;28;20216;-81
2021/12/02 08:31:13;;;;;;;0.05;0.05;;;5.00;99.90;;;4.73;100.00;98884.75;4956017;28;20585;-83
2021/12/02 08:33:41;;;;;;;0.10;0.10;;;5.00;99.90;;;4.75;100.00;98893.47;4981932;28;20225;-84
2021/12/02 08:36:10;;;;;;;0.10;0.10;;;5.00;99.90;;;4.74;100.00;98895.22;4976520;28;20224;-84
2021/12/02 08:38:38;;;;;;;0.00;0.00;;;5.00;99.90;;;4.75;100.00;98888.25;4986854;28;20233;-82
2021/12/02 08:41:07;;;;;;;0.00;0.00;;;5.00;99.90;;;4.74;100.00;98896.97;4968861;28;20216;-82
2021/12/02 08:43:35;;;;;;;0.10;0.10;;;5.00;99.90;;;4.73;100.00;98903.94;4960312;28;20201;-83
2021/12/02 08:46:03;;;;;;;0.10;0.10;;;5.00;99.90;;;4.73;100.00;98906.56;4983627;28;20240;-83
2021/12/02 08:48:31;;;;;;;0.10;0.10;;;5.00;99.90;;;4.74;100.00;98910.94;4989773;28;20725;-83
2021/12/02 08:50:59;;;;;;;1.55;1.45;;;5.00;99.90;;;4.74;100.00;98908.31;4975869;28;20209;-83
2021/12/02 08:53:27;;;;;;;0.10;0.10;;;5.00;99.90;;;4.74;100.00;98913.56;4993870;28;20209;-83
2021/12/02 08:55:55;;;;;;;0.00;0.00;;;5.00;99.90;;;4.74;100.00;98910.06;4980159;28;20236;-83
2021/12/02 08:58:23;;;;;;;0.10;0.10;;;5.00;99.90;;;4.74;100.00;98905.69;4995363;28;20208;-82
2021/12/02 09:00:52;;;;;;;0.00;0.00;;;4.90;99.90;;;4.77;100.00;98903.09;4964154;28;20203;-83
2021/12/02 09:03:23;;;;;;;0.10;0.10;;;5.00;99.90;;;4.75;100.00;98901.34;4977997;28;20201;-87
2021/12/02 09:05:53;;;;;;;0.10;0.10;;;4.90;99.90;;;4.75;100.00;98888.25;4969623;28;20224;-84
2021/12/02 09:08:24;;;;;;;0.10;0.10;;;5.00;99.90;;;4.76;100.00;98888.25;4967306;28;20200;-84
2021/12/02 09:11:10;;;;;;;0.10;0.10;;;5.00;99.90;;;4.77;100.00;98897.00;4971132;28;20220;-84
2021/12/02 09:13:39;;;;;;;0.10;0.10;;;5.00;99.90;;;4.76;100.00;98895.25;4970252;28;20204;-83
2021/12/02 09:16:07;;;;;;;0.10;0.10;;;5.00;99.90;;;4.77;100.00;98891.75;4948072;28;20225;-84
2021/12/02 09:18:36;;;;;;;0.03;0.03;;;5.00;99.90;;;4.78;100.00;98889.16;4964967;28;20208;-82
2021/12/02 09:21:05;;;;;;;0.10;0.10;;;5.00;99.90;;;4.79;100.00;98896.13;4968908;28;20209;-83
2021/12/02 09:23:33;;;;;;;0.03;0.03;;;5.00;99.90;;;4.79;100.00;98882.16;4987931;28;20200;-84
2021/12/02 09:26:01;;;;;;;0.10;0.10;;;5.00;99.90;;;4.81;100.00;98888.28;4991295;28;20233;-83
2021/12/02 09:28:31;;;;;;;0.10;0.10;;;5.00;99.90;;;4.80;100.00;98886.53;4985515;28;20207;-84
2021/12/02 09:31:00;;;;;;;0.00;0.00;;;5.00;99.90;;;4.79;100.00;98874.31;4951643;28;20205;-84
2021/12/02 09:33:28;;;;;;;0.10;0.10;;;5.00;99.90;;;4.81;100.00;98872.56;4970354;28;20215;-84
2021/12/02 09:35:57;;;;;;;0.10;0.10;;;5.10;99.90;;;4.87;100.00;98884.84;4990190;28;20243;-83
2021/12/02 09:38:26;;;;;;;0.10;0.10;;;5.10;99.90;;;4.89;100.00;98897.06;4976997;28;20578;-83
2021/12/02 09:41:09;;;;;;;0.10;0.10;;;3.10;99.90;;;4.87;100.00;98897.94;4952530;28;20230;-83
2021/12/02 09:43:38;;;;;;;0.10;0.10;;;5.10;99.90;;;4.91;100.00;98900.59;4984176;28;20211;-83
2021/12/02 09:46:06;;;;;;;0.10;0.10;;;5.10;99.90;;;4.92;100.00;98888.38;4951133;28;20240;-83
2021/12/02 09:48:36;;;;;;;0.03;0.03;;;5.20;99.90;;;4.95;100.00;98894.50;4970438;28;20200;-83
2021/12/02 09:51:10;;;;;;;0.00;0.00;;;5.20;99.90;;;5.01;100.00;98906.75;4985530;28;20207;-84
2021/12/02 09:54:19;;;;;;;0.05;0.05;;;5.20;99.90;;;5.00;100.00;98907.63;4993739;28;20204;-84
2021/12/02 09:56:56;;;;;;;0.10;0.10;;;5.30;99.90;;;5.02;100.00;98905.91;4980518;28;20224;-84
2021/12/02 09:59:26;;;;;;;0.10;0.10;;;5.30;99.90;;;5.07;100.00;98912.03;4980161;28;20224;-83
2021/12/02 10:02:01;;;;;;;0.00;0.00;;;5.30;99.90;;;5.06;100.00;98910.28;4978924;28;20205;-83
2021/12/02 10:04:33;;;;;;;0.10;0.10;;;5.40;99.90;;;5.09;100.00;98908.56;4983463;28;20203;-84
2021/12/02 10:07:15;;;;;;;0.00;0.00;;;5.40;99.90;;;5.12;100.00;98908.59;5015801;28;20286;-84
2021/12/02 10:10:13;;;;;;;0.00;0.00;;;5.40;99.90;;;5.17;100.00;98911.22;4950664;28;20223;-83
2021/12/02 10:13:23;;;;;;;0.10;0.10;;;5.40;99.90;;;5.20;100.00;98907.75;5003546;28;20217;-84
2021/12/02 10:16:22;;;;;;;0.00;0.00;;;5.50;99.90;;;5.21;100.00;98914.78;4978200;28;20232;-83
2021/12/02 10:21:40;;;;;;;0.10;0.10;;;5.50;99.90;;;5.21;100.00;98917.41;5014923;28;21166;-83
2021/12/02 10:24:25;;;;;;;0.00;0.00;;;5.50;99.90;;;5.22;100.00;98916.53;4992005;28;20211;-83
2021/12/02 10:26:57;;;;;;;0.10;0.10;;;5.50;99.90;;;5.26;100.00;98924.44;4957107;28;20232;-83
2021/12/02 10:29:47;;;;;;;0.10;0.10;;;5.50;99.90;;;5.21;100.00;98913.03;4968462;28;20576;-84
2021/12/02 10:32:20;;;;;;;0.00;0.00;;;5.50;99.90;;;5.21;100.00;98915.66;4990867;28;20208;-82
2021/12/02 10:35:06;;;;;;;0.10;0.10;;;5.50;99.90;;;5.29;100.00;98907.84;4986195;28;20204;-83
2021/12/02 10:37:43;;;;;;;0.10;0.10;;;5.50;99.90;;;5.33;100.00;98893.88;4969487;28;20234;-84
2021/12/02 10:40:15;;;;;;;0.10;0.10;;;5.60;99.90;;;5.35;100.00;98885.16;4985589;28;20228;-83
2021/12/02 10:42:47;;;;;;;0.10;0.10;;;5.60;99.90;;;5.35;100.00;98881.66;5017279;28;20196;-82
2021/12/02 10:45:33;;;;;;;0.10;0.10;;;5.60;99.90;;;5.40;100.00;98875.56;5022889;28;20297;-83
2021/12/02 10:48:02;;;;;;;0.10;0.10;;;5.60;99.90;;;5.39;100.00;98871.19;4958851;28;20275;-85
2021/12/02 10:50:39;;;;;;;0.10;0.10;;;5.60;99.90;;;5.41;100.00;98864.22;4991428;28;20236;-83
2021/12/02 10:53:10;;;;;;;0.00;0.00;;;5.70;99.90;;;5.43;100.00;98867.72;4974645;28;20224;-83
2021/12/02 10:55:41;;;;;;;0.00;0.00;;;5.60;99.90;;;5.45;100.00;98862.50;4981391;28;20212;-82
2021/12/02 10:58:10;;;;;;;0.10;0.10;;;5.70;99.90;;;5.39;100.00;98855.47;4977228;28;20215;-83
2021/12/02 11:00:43;;;;;;;0.10;0.10;;;5.70;99.90;;;5.43;100.00;98865.09;4960667;28;20224;-82
2021/12/02 11:03:21;;;;;;;0.03;0.03;;;5.70;99.90;;;5.42;100.00;98865.09;5010983;28;20236;-82
2021/12/02 11:05:51;;;;;;;0.10;0.10;;;5.70;99.90;;;5.48;100.00;98883.47;4962008;28;20228;-82
2021/12/02 11:08:20;;;;;;;0.10;0.10;;;5.70;99.90;;;5.45;100.00;98876.47;4998292;28;20208;-82
2021/12/02 11:10:54;;;;;;;0.10;0.10;;;5.70;99.90;;;5.46;100.00;98872.97;4984947;28;20224;-84
2021/12/02 11:13:49;;;;;;;0.10;0.10;;;5.70;99.90;;;5.49;100.00;98877.38;4993435;28;20599;-83
2021/12/02 11:16:34;;;;;;;0.20;0.20;;;5.70;99.90;;;5.56;100.00;98899.25;5003316;28;20228;-82
2021/12/02 11:19:22;;;;;;;0.00;0.00;;;5.80;99.90;;;5.55;100.00;98892.25;4982217;28;20208;-82
2021/12/02 11:22:15;;;;;;;0.10;0.10;;;5.70;99.90;;;5.50;100.00;98876.50;4964551;28;20698;-82